Time;durP1;ratioP1;P1;durP2;ratioP2;P2;SDS_P1;SDS_P2;PMS_P1;PMS_P2;Temp;Humidity;BMP_temperature;BMP_pressure;BME280_temperature;BME280_humidity;BME280_pressure;Samples;Min_cycle;Max_cycle;Signal;HPM_P1;HPM_P2
2021/06/19 00:00:13;;;;;;;18.77;16.80;;;;;;;24.66;69.31;100400.47;5103749;28;20212;-70
2021/06/19 00:02:40;;;;;;;20.13;16.70;;;;;;;24.63;69.45;100397.28;5101369;28;20511;-69
2021/06/19 00:05:08;;;;;;;18.33;16.65;;;;;;;24.60;69.66;100390.34;5103753;28;20202;-69
2021/06/19 00:07:35;;;;;;;19.90;16.20;;;;;;;24.60;69.75;100389.50;5104178;28;20681;-69
2021/06/19 00:10:01;;;;;;;18.95;16.77;;;;;;;24.57;69.62;100391.56;5105653;28;20208;-69
2021/06/19 00:12:28;;;;;;;19.58;17.30;;;;;;;24.55;70.02;100392.81;5104812;28;20226;-70
2021/06/19 00:14:56;;;;;;;18.80;16.48;;;;;;;24.51;70.06;100394.25;5103132;28;20211;-70
2021/06/19 00:17:22;;;;;;;19.67;17.67;;;;;;;24.50;70.26;100395.28;5104579;28;20208;-69
2021/06/19 00:19:49;;;;;;;17.90;16.05;;;;;;;24.47;70.31;100395.66;5105533;28;20548;-70
2021/06/19 00:22:15;;;;;;;18.95;16.80;;;;;;;24.47;70.29;100407.41;5105975;28;20254;-69
2021/06/19 00:24:42;;;;;;;18.38;16.67;;;;;;;24.47;70.21;100414.72;5108120;28;20204;-69
2021/06/19 00:27:09;;;;;;;18.92;17.17;;;;;;;24.48;70.11;100413.69;5111598;28;20207;-68
2021/06/19 00:29:35;;;;;;;18.05;16.65;;;;;;;24.49;70.15;100421.66;5108324;28;20199;-69
2021/06/19 00:32:04;;;;;;;20.25;18.45;;;;;;;24.49;70.45;100424.38;5109158;28;20201;-68
2021/06/19 00:34:31;;;;;;;20.92;19.20;;;;;;;24.49;70.13;100423.53;5126589;27;20226;-69
2021/06/19 00:36:57;;;;;;;20.42;18.70;;;;;;;24.46;70.39;100421.19;5130472;27;20703;-69
2021/06/19 00:39:24;;;;;;;20.75;18.92;;;;;;;24.41;70.29;100435.38;5130023;27;20206;-69
2021/06/19 00:41:50;;;;;;;21.20;19.40;;;;;;;24.35;70.01;100427.16;5129114;27;20233;-69
2021/06/19 00:44:19;;;;;;;21.35;19.17;;;;;;;24.28;70.19;100432.50;5129958;27;20198;-70
2021/06/19 00:46:49;;;;;;;20.35;18.40;;;;;;;24.22;70.55;100425.91;5129033;27;20402;-69
2021/06/19 00:49:17;;;;;;;21.05;19.10;;;;;;;24.15;70.50;100425.00;5129876;27;20198;-69
2021/06/19 00:51:44;;;;;;;22.58;20.17;;;;;;;24.07;70.45;100422.38;5129989;27;20564;-68
2021/06/19 00:54:10;;;;;;;20.98;18.98;;;;;;;23.99;70.60;100425.22;5131019;27;20222;-69
2021/06/19 00:56:37;;;;;;;21.00;18.90;;;;;;;23.92;70.94;100434.31;5126742;27;20664;-69
2021/06/19 00:59:04;;;;;;;20.05;18.05;;;;;;;23.84;70.97;100441.53;5130451;27;20222;-70
2021/06/19 01:01:31;;;;;;;19.85;17.85;;;;;;;23.81;71.48;100449.25;5127503;27;20210;-69
2021/06/19 01:03:58;;;;;;;19.63;17.88;;;;;;;23.79;71.56;100444.00;5130477;27;20226;-69
2021/06/19 01:06:25;;;;;;;20.77;18.27;;;;;;;23.79;71.63;100441.28;5131170;27;20203;-68
2021/06/19 01:08:52;;;;;;;19.80;17.70;;;;;;;23.79;71.86;100446.72;5130080;27;20207;-69
2021/06/19 01:11:21;;;;;;;20.92;17.10;;;;;;;23.79;71.60;100446.72;5131762;27;20209;-69
2021/06/19 01:13:48;;;;;;;20.40;17.13;;;;;;;23.78;71.36;100449.63;5128149;27;20241;-68
2021/06/19 01:16:15;;;;;;;27.42;18.58;;;;;;;23.74;71.24;100454.56;5130681;27;20214;-68
2021/06/19 01:18:42;;;;;;;23.77;17.95;;;;;;;23.69;71.00;100451.56;5128852;27;20573;-69
2021/06/19 01:21:13;;;;;;;22.27;18.10;;;;;;;23.63;71.09;100451.50;5127131;27;20916;-69
2021/06/19 01:23:41;;;;;;;22.10;18.27;;;;;;;23.57;71.40;100444.91;5130022;27;20233;-69
2021/06/19 01:26:09;;;;;;;21.77;17.88;;;;;;;23.53;71.50;100447.16;5130986;27;20199;-68
2021/06/19 01:28:36;;;;;;;18.17;16.27;;;;;;;23.52;71.74;100440.03;5128147;27;20202;-69
2021/06/19 01:31:02;;;;;;;19.73;17.75;;;;;;;23.54;71.88;100448.00;5132311;27;20206;-69
2021/06/19 01:33:29;;;;;;;20.92;17.38;;;;;;;23.55;71.94;100455.13;5128859;27;20728;-69
2021/06/19 01:35:55;;;;;;;19.25;16.70;;;;;;;23.58;72.00;100453.91;5129292;27;20552;-69
2021/06/19 01:38:22;;;;;;;22.13;18.42;;;;;;;23.59;71.76;100461.88;5128995;27;20738;-70
2021/06/19 01:40:49;;;;;;;20.50;17.88;;;;;;;23.58;71.80;100465.63;5128228;27;20202;-69
2021/06/19 01:43:16;;;;;;;20.80;18.30;;;;;;;23.56;71.99;100467.69;5128693;27;20226;-69
2021/06/19 01:45:43;;;;;;;26.17;18.75;;;;;;;23.54;72.23;100459.72;5127199;27;20611;-69
2021/06/19 01:48:10;;;;;;;26.65;18.05;;;;;;;23.53;72.61;100460.75;5131149;27;20199;-69
2021/06/19 01:50:37;;;;;;;30.65;19.42;;;;;;;23.53;72.42;100459.91;5129103;27;20213;-69
2021/06/19 01:53:05;;;;;;;20.98;18.20;;;;;;;23.51;72.72;100460.06;5128673;27;20228;-68
2021/06/19 01:55:32;;;;;;;25.17;19.88;;;;;;;23.50;73.01;100461.06;5128454;27;20289;-68
2021/06/19 01:58:00;;;;;;;21.05;18.80;;;;;;;23.49;73.22;100453.94;5126956;27;20199;-69
2021/06/19 02:00:30;;;;;;;18.50;16.77;;;;;;;23.48;73.11;100449.53;5128058;27;20680;-69
2021/06/19 02:02:56;;;;;;;19.25;16.55;;;;;;;23.49;72.82;100455.81;5127836;27;20226;-69
2021/06/19 02:05:24;;;;;;;15.38;13.98;;;;;;;23.50;72.80;100452.91;5128334;27;20198;-67
2021/06/19 02:07:53;;;;;;;16.23;14.82;;;;;;;23.59;72.22;100439.28;5128792;27;20551;-69
2021/06/19 02:10:21;;;;;;;15.27;13.93;;;;;;;23.68;71.69;100432.72;5126327;27;20204;-69
2021/06/19 02:12:48;;;;;;;14.43;13.00;;;;;;;23.78;70.83;100430.56;5127350;27;20228;-69
2021/06/19 02:15:15;;;;;;;15.23;13.70;;;;;;;23.85;70.44;100431.50;5128682;27;20585;-69
2021/06/19 02:17:44;;;;;;;14.23;12.98;;;;;;;23.92;69.61;100435.16;5127871;27;20211;-68
2021/06/19 02:20:12;;;;;;;14.57;13.07;;;;;;;23.98;68.88;100428.97;5121907;27;21072;-68
2021/06/19 02:22:38;;;;;;;18.80;16.80;;;;;;;24.05;69.07;100432.59;5126625;27;20222;-70
2021/06/19 02:25:08;;;;;;;25.85;16.63;;;;;;;24.10;69.14;100441.06;5128018;27;20205;-69
2021/06/19 02:27:34;;;;;;;23.85;17.50;;;;;;;24.08;69.14;100450.44;5127121;27;20852;-69
2021/06/19 02:30:01;;;;;;;17.73;15.95;;;;;;;24.04;69.34;100451.84;5129588;27;20689;-69
2021/06/19 02:32:28;;;;;;;18.05;16.35;;;;;;;24.00;69.66;100450.56;5126604;27;20228;-68
2021/06/19 02:34:55;;;;;;;24.63;17.67;;;;;;;23.95;69.92;100451.09;5128861;27;20291;-69
2021/06/19 02:37:22;;;;;;;20.52;17.02;;;;;;;23.89;70.02;100447.25;5128833;27;20213;-69
2021/06/19 02:39:48;;;;;;;18.23;16.30;;;;;;;23.86;70.09;100452.22;5127637;27;20213;-68
2021/06/19 02:42:15;;;;;;;19.77;17.00;;;;;;;23.83;70.18;100455.31;5127382;27;20238;-69
2021/06/19 02:44:41;;;;;;;19.02;15.10;;;;;;;23.80;70.39;100458.44;5126306;27;20202;-69
2021/06/19 02:47:08;;;;;;;14.15;12.88;;;;;;;23.77;69.71;100454.22;5128162;27;20202;-69
2021/06/19 02:49:34;;;;;;;13.57;12.27;;;;;;;23.75;69.31;100466.31;5126402;27;20209;-69
2021/06/19 02:52:03;;;;;;;13.35;11.95;;;;;;;23.79;68.77;100465.75;5127537;27;20217;-70
2021/06/19 02:54:29;;;;;;;12.85;11.75;;;;;;;23.83;68.31;100463.47;5126850;27;20209;-69
2021/06/19 02:56:56;;;;;;;12.55;11.35;;;;;;;23.89;67.65;100457.28;5127838;27;20199;-70
2021/06/19 02:59:22;;;;;;;13.55;10.80;;;;;;;23.97;67.19;100465.38;5127753;27;20217;-69
2021/06/19 03:01:48;;;;;;;11.70;10.57;;;;;;;24.02;66.49;100468.34;5124232;27;20671;-68
2021/06/19 03:04:16;;;;;;;12.98;10.65;;;;;;;24.11;65.76;100463.66;5128781;27;20211;-70
2021/06/19 03:06:42;;;;;;;12.52;10.25;;;;;;;24.21;65.55;100466.91;5126478;27;20227;-69
2021/06/19 03:09:10;;;;;;;13.90;10.63;;;;;;;24.28;65.03;100461.59;5129080;27;20570;-68
2021/06/19 03:11:37;;;;;;;13.75;11.10;;;;;;;24.34;64.60;100460.84;5125715;27;20198;-68
2021/06/19 03:14:04;;;;;;;12.70;10.48;;;;;;;24.42;64.41;100471.63;5127452;27;20214;-69
2021/06/19 03:16:31;;;;;;;11.15;10.15;;;;;;;24.47;63.95;100478.19;5128150;27;20210;-70
2021/06/19 03:18:59;;;;;;;10.73;9.45;;;;;;;24.52;63.52;100469.44;5120948;27;20633;-69
2021/06/19 03:21:25;;;;;;;10.95;9.93;;;;;;;24.55;63.14;100461.72;5126194;28;20206;-68
2021/06/19 03:23:52;;;;;;;10.18;9.27;;;;;;;24.57;63.13;100454.19;5125979;28;20231;-68
2021/06/19 03:26:20;;;;;;;11.00;9.90;;;;;;;24.61;62.64;100453.81;5128481;28;20216;-69
2021/06/19 03:28:46;;;;;;;11.70;9.82;;;;;;;24.63;62.51;100455.31;5125352;28;20206;-69
2021/06/19 03:31:13;;;;;;;11.93;10.82;;;;;;;24.68;62.41;100454.75;5127347;28;20791;-69
2021/06/19 03:33:39;;;;;;;14.25;10.95;;;;;;;24.69;62.42;100460.00;5123741;28;20226;-70
2021/06/19 03:36:06;;;;;;;12.57;11.15;;;;;;;24.72;62.83;100451.41;5128623;28;20220;-69
2021/06/19 03:38:33;;;;;;;12.32;11.23;;;;;;;24.75;62.82;100450.19;5126206;28;21357;-69
2021/06/19 03:40:59;;;;;;;12.93;11.63;;;;;;;24.74;62.64;100446.63;5124227;28;20201;-69
2021/06/19 03:43:27;;;;;;;12.60;11.30;;;;;;;24.74;62.91;100452.06;5126323;28;20230;-68
2021/06/19 03:45:53;;;;;;;15.00;10.98;;;;;;;24.72;62.93;100454.13;5128133;28;20207;-68
2021/06/19 03:48:20;;;;;;;11.45;10.30;;;;;;;24.71;62.94;100463.38;5128315;28;20216;-69
2021/06/19 03:50:46;;;;;;;12.43;10.13;;;;;;;24.69;62.33;100462.72;5125867;28;20576;-69
2021/06/19 03:53:13;;;;;;;11.23;10.15;;;;;;;24.68;62.65;100469.22;5127009;28;20218;-69
2021/06/19 03:55:39;;;;;;;11.98;10.07;;;;;;;24.68;62.46;100468.34;5127816;28;20207;-69
2021/06/19 03:58:06;;;;;;;12.38;10.60;;;;;;;24.67;62.51;100469.41;5126969;28;20211;-69
2021/06/19 04:00:34;;;;;;;14.48;10.82;;;;;;;24.67;62.30;100472.13;5128821;27;20206;-69
2021/06/19 04:03:01;;;;;;;12.65;9.90;;;;;;;24.65;62.30;100477.75;5127122;27;20222;-69
2021/06/19 04:05:28;;;;;;;11.50;10.27;;;;;;;24.65;62.03;100476.91;5131873;27;20251;-69
2021/06/19 04:07:54;;;;;;;14.20;12.80;;;;;;;24.61;62.94;100484.63;5131631;27;20203;-69
2021/06/19 04:10:22;;;;;;;16.17;13.10;;;;;;;24.56;63.58;100479.75;5131759;27;20213;-69
2021/06/19 04:12:49;;;;;;;15.93;12.98;;;;;;;24.48;64.33;100479.03;5128451;27;20211;-68
2021/06/19 04:15:16;;;;;;;14.43;12.88;;;;;;;24.41;64.82;100489.81;5129732;27;20211;-68
2021/06/19 04:17:44;;;;;;;15.02;12.82;;;;;;;24.31;64.89;100499.34;5129112;27;20726;-69
2021/06/19 04:20:13;;;;;;;17.02;13.32;;;;;;;24.24;65.54;100501.97;5127300;27;20203;-69
2021/06/19 04:22:40;;;;;;;14.20;12.55;;;;;;;24.20;66.01;100501.44;5125903;27;20230;-69
2021/06/19 04:25:09;;;;;;;15.85;13.23;;;;;;;24.15;66.10;100497.63;5131122;27;20205;-68
2021/06/19 04:27:40;;;;;;;14.98;12.93;;;;;;;24.10;66.05;100498.19;5128899;27;20226;-69
2021/06/19 04:30:09;;;;;;;14.95;13.18;;;;;;;24.10;66.47;100502.78;5126956;27;20580;-69
2021/06/19 04:32:36;;;;;;;15.25;13.93;;;;;;;24.10;66.39;100510.94;5125235;27;20604;-69
2021/06/19 04:35:05;;;;;;;14.95;13.30;;;;;;;24.10;66.56;100514.50;5130633;27;20576;-69
2021/06/19 04:37:32;;;;;;;18.98;15.25;;;;;;;24.08;67.01;100502.97;5127998;27;20210;-69
2021/06/19 04:40:04;;;;;;;15.65;14.10;;;;;;;24.08;67.06;100515.72;5129310;27;20195;-69
2021/06/19 04:42:36;;;;;;;16.00;14.32;;;;;;;24.07;67.51;100514.88;5125438;27;20650;-68
2021/06/19 04:45:04;;;;;;;15.65;14.18;;;;;;;24.10;67.48;100528.13;5130493;27;20201;-69
2021/06/19 04:47:31;;;;;;;17.05;14.55;;;;;;;24.10;67.44;100524.56;5129939;27;20207;-69
2021/06/19 04:49:58;;;;;;;15.35;13.80;;;;;;;24.09;67.56;100526.44;5126624;27;20295;-68
2021/06/19 04:52:28;;;;;;;14.63;13.18;;;;;;;24.09;67.64;100529.16;5126434;27;20761;-70
2021/06/19 04:54:55;;;;;;;14.88;13.43;;;;;;;24.11;67.78;100532.53;5127129;27;20694;-69
2021/06/19 04:57:22;;;;;;;15.80;12.52;;;;;;;24.13;67.79;100527.75;5129037;27;20548;-70
2021/06/19 04:59:49;;;;;;;17.42;13.85;;;;;;;24.14;67.98;100529.44;5126828;27;20214;-69
2021/06/19 05:02:16;;;;;;;13.85;12.30;;;;;;;24.19;68.11;100534.28;5127132;27;20259;-69
2021/06/19 05:04:42;;;;;;;13.90;12.70;;;;;;;24.20;68.05;100542.28;5125290;27;20227;-69
2021/06/19 05:07:09;;;;;;;14.45;12.98;;;;;;;24.22;67.99;100551.09;5130569;27;20257;-70
2021/06/19 05:09:37;;;;;;;13.27;12.02;;;;;;;24.27;67.91;100568.78;5128568;27;20209;-69
2021/06/19 05:12:04;;;;;;;14.00;12.52;;;;;;;24.31;68.07;100564.66;5127590;27;20215;-69
2021/06/19 05:14:30;;;;;;;14.10;12.38;;;;;;;24.35;67.94;100568.69;5130283;27;20198;-69
2021/06/19 05:16:57;;;;;;;14.07;12.48;;;;;;;24.40;67.55;100567.06;5126348;27;20249;-69
2021/06/19 05:19:23;;;;;;;15.07;12.05;;;;;;;24.46;67.86;100566.34;5130497;27;20203;-69
2021/06/19 05:21:50;;;;;;;17.92;13.63;;;;;;;24.52;67.58;100571.03;5127183;27;20284;-68
2021/06/19 05:24:17;;;;;;;12.63;11.43;;;;;;;24.58;67.66;100566.69;5131288;27;20227;-69
2021/06/19 05:26:47;;;;;;;13.70;12.40;;;;;;;24.65;67.46;100562.19;5131719;27;20206;-69
2021/06/19 05:29:14;;;;;;;13.52;12.25;;;;;;;24.70;67.15;100565.19;5131745;27;20203;-69
2021/06/19 05:31:40;;;;;;;15.85;12.23;;;;;;;24.76;67.05;100564.41;5127504;27;20203;-69
2021/06/19 05:34:07;;;;;;;14.35;12.05;;;;;;;24.82;66.56;100557.34;5108027;22;20712;-64
2021/06/19 05:36:33;;;;;;;15.40;10.95;;;;;;;24.89;66.36;100564.56;5052904;28;20209;-64
2021/06/19 05:39:00;;;;;;;16.77;11.20;;;;;;;24.95;65.94;100562.13;5057697;28;20201;-65
2021/06/19 05:41:26;;;;;;;11.95;10.23;;;;;;;25.01;65.72;100562.22;5057098;28;20201;-64
2021/06/19 05:43:54;;;;;;;11.65;10.35;;;;;;;25.07;65.30;100575.06;5061486;28;20229;-64
2021/06/19 05:46:21;;;;;;;11.38;10.02;;;;;;;25.15;65.19;100576.81;5050921;28;20212;-63
2021/06/19 05:48:47;;;;;;;13.45;9.75;;;;;;;25.24;64.45;100581.13;5054061;28;20198;-64
2021/06/19 05:51:14;;;;;;;18.48;10.02;;;;;;;25.32;64.60;100580.97;5052510;28;20231;-64
2021/06/19 05:53:40;;;;;;;11.75;9.52;;;;;;;25.46;64.16;100584.66;5054298;28;20242;-64
2021/06/19 05:56:07;;;;;;;12.00;8.90;;;;;;;25.59;63.75;100602.03;5053712;28;20666;-64
2021/06/19 05:58:34;;;;;;;17.20;9.52;;;;;;;25.69;63.19;100601.69;5047989;28;20263;-64
2021/06/19 06:01:02;;;;;;;13.05;9.68;;;;;;;25.78;62.43;100603.28;5037804;28;20211;-64
2021/06/19 06:03:28;;;;;;;9.65;8.52;;;;;;;25.91;62.22;100602.53;5045554;28;20241;-68
2021/06/19 06:05:55;;;;;;;8.93;8.05;;;;;;;26.04;61.80;100597.16;5041525;28;20217;-68
2021/06/19 06:08:21;;;;;;;12.60;8.63;;;;;;;26.19;61.71;100610.69;5043267;28;20213;-68
2021/06/19 06:10:48;;;;;;;12.02;8.23;;;;;;;26.34;61.73;100613.34;5042741;28;20208;-68
2021/06/19 06:13:14;;;;;;;8.80;7.75;;;;;;;26.48;61.17;100612.41;5036084;28;20707;-68
2021/06/19 06:15:41;;;;;;;10.73;7.53;;;;;;;26.57;59.93;100616.63;5039637;28;20204;-68
2021/06/19 06:18:09;;;;;;;9.77;6.90;;;;;;;26.66;59.20;100617.31;5033910;28;20210;-68
2021/06/19 06:20:35;;;;;;;9.88;7.57;;;;;;;26.76;58.68;100629.56;5042334;28;20213;-68
2021/06/19 06:23:02;;;;;;;9.57;7.15;;;;;;;26.86;58.44;100627.31;5035558;28;20228;-68
2021/06/19 06:25:29;;;;;;;9.98;7.70;;;;;;;26.98;58.17;100633.03;5039930;28;20217;-68
2021/06/19 06:27:55;;;;;;;9.73;7.38;;;;;;;27.11;57.55;100644.03;5036289;28;20216;-68
2021/06/19 06:30:23;;;;;;;9.70;7.22;;;;;;;27.20;57.06;100633.75;5032693;28;20206;-64
2021/06/19 06:32:50;;;;;;;11.30;6.70;;;;;;;27.27;56.86;100634.59;5034092;28;20209;-64
2021/06/19 06:35:18;;;;;;;10.15;6.78;;;;;;;27.36;55.99;100636.13;5031825;28;20228;-65
2021/06/19 06:37:44;;;;;;;6.30;5.70;;;;;;;27.41;55.64;100639.06;5033493;28;20296;-63
2021/06/19 06:40:13;;;;;;;10.40;5.82;;;;;;;27.48;55.30;100631.72;5033581;28;20587;-64
2021/06/19 06:42:41;;;;;;;9.00;6.20;;;;;;;27.56;54.81;100630.69;5035088;28;20729;-65
2021/06/19 06:45:09;;;;;;;7.47;6.00;;;;;;;27.64;54.37;100633.25;5037295;28;20237;-64
2021/06/19 06:47:36;;;;;;;10.20;5.55;;;;;;;27.75;54.24;100634.53;5035876;28;20251;-63
2021/06/19 06:50:03;;;;;;;6.07;5.47;;;;;;;27.84;53.62;100642.31;5047484;28;20678;-64
2021/06/19 06:52:31;;;;;;;6.80;5.30;;;;;;;27.94;53.52;100630.97;5041258;28;20205;-64
2021/06/19 06:54:58;;;;;;;7.55;4.63;;;;;;;28.07;53.46;100630.94;5043068;28;20209;-65
2021/06/19 06:57:24;;;;;;;9.35;5.38;;;;;;;28.22;52.51;100628.00;5047885;28;20208;-64
2021/06/19 06:59:51;;;;;;;6.55;4.90;;;;;;;28.33;52.08;100621.88;5043150;28;20202;-65
2021/06/19 07:02:18;;;;;;;5.70;4.65;;;;;;;28.42;51.83;100630.72;5035829;28;20210;-64
2021/06/19 07:04:44;;;;;;;5.75;4.60;;;;;;;28.55;51.84;100637.00;5044939;28;20221;-64
2021/06/19 07:07:11;;;;;;;5.93;4.75;;;;;;;28.71;51.29;100635.69;5041101;28;20201;-64
2021/06/19 07:09:39;;;;;;;6.78;5.00;;;;;;;28.84;50.96;100635.66;5038710;28;20217;-64
2021/06/19 07:12:06;;;;;;;5.72;4.65;;;;;;;28.95;49.79;100636.91;5039663;28;20714;-64
2021/06/19 07:14:32;;;;;;;6.28;4.45;;;;;;;29.00;49.72;100639.84;5039296;28;20726;-64
2021/06/19 07:16:59;;;;;;;5.95;4.70;;;;;;;29.06;49.40;100635.38;5049524;28;20207;-64
2021/06/19 07:19:25;;;;;;;5.22;4.60;;;;;;;29.09;48.49;100627.53;5045492;28;20209;-64
2021/06/19 07:21:52;;;;;;;6.32;4.68;;;;;;;29.15;48.39;100642.28;5038348;28;20228;-65
2021/06/19 07:24:18;;;;;;;6.25;5.15;;;;;;;29.21;48.18;100633.16;5047079;28;20224;-65
2021/06/19 07:26:46;;;;;;;6.53;5.30;;;;;;;29.27;48.13;100629.56;5034567;28;20204;-64
2021/06/19 07:29:13;;;;;;;6.93;5.20;;;;;;;29.38;48.21;100635.19;5036175;28;20209;-64
2021/06/19 07:31:39;;;;;;;6.18;4.57;;;;;;;29.49;47.66;100639.16;5035345;28;20213;-64
2021/06/19 07:34:06;;;;;;;6.97;4.82;;;;;;;29.56;47.31;100633.66;5031644;28;20241;-64
2021/06/19 07:36:32;;;;;;;5.80;4.30;;;;;;;29.60;46.86;100624.72;5037434;28;20584;-65
2021/06/19 07:38:59;;;;;;;7.75;4.63;;;;;;;29.69;46.45;100639.03;5052638;28;20201;-64
2021/06/19 07:41:25;;;;;;;7.95;4.32;;;;;;;29.76;46.66;100638.97;5047743;28;20574;-65
2021/06/19 07:43:54;;;;;;;5.53;4.32;;;;;;;29.83;46.19;100629.63;5053012;28;20239;-68
2021/06/19 07:46:20;;;;;;;5.78;4.10;;;;;;;29.91;46.16;100631.28;5051338;28;20209;-68
2021/06/19 07:48:47;;;;;;;7.07;3.88;;;;;;;30.00;45.71;100635.44;5051139;28;20675;-68
2021/06/19 07:51:13;;;;;;;5.85;4.30;;;;;;;30.08;46.12;100637.91;5053795;28;20209;-68
2021/06/19 07:53:40;;;;;;;11.73;4.40;;;;;;;30.17;46.18;100625.56;5044853;28;20221;-68
2021/06/19 07:56:06;;;;;;;7.47;4.45;;;;;;;30.22;45.82;100633.97;5053792;28;20205;-67
2021/06/19 07:58:33;;;;;;;6.85;3.78;;;;;;;30.33;45.56;100635.97;5053066;28;20213;-69
2021/06/19 08:01:01;;;;;;;8.40;4.18;;;;;;;30.39;44.72;100637.81;5050064;28;20205;-69
2021/06/19 08:03:27;;;;;;;5.10;3.85;;;;;;;30.43;44.46;100640.09;5051853;28;20275;-69
2021/06/19 08:05:55;;;;;;;5.47;3.42;;;;;;;30.46;44.60;100651.47;5053116;28;20221;-69
2021/06/19 08:08:21;;;;;;;4.13;3.72;;;;;;;30.56;44.48;100645.50;5053266;28;20678;-69
2021/06/19 08:10:49;;;;;;;6.38;4.30;;;;;;;30.67;44.30;100648.31;5053119;28;20204;-68
2021/06/19 08:13:16;;;;;;;5.88;3.90;;;;;;;30.75;44.34;100649.94;5052739;28;20229;-69
2021/06/19 08:15:43;;;;;;;6.78;4.25;;;;;;;30.84;44.54;100653.19;5053193;28;20209;-69
2021/06/19 08:18:11;;;;;;;5.07;4.45;;;;;;;30.93;44.44;100660.91;5053295;28;20202;-69
2021/06/19 08:20:37;;;;;;;5.90;4.60;;;;;;;30.95;43.86;100656.03;5053352;28;20201;-68
2021/06/19 08:23:04;;;;;;;5.22;4.80;;;;;;;31.01;44.49;100657.84;5052455;28;20744;-69
2021/06/19 08:25:31;;;;;;;5.32;4.40;;;;;;;31.13;44.40;100655.19;5052541;28;20225;-68
2021/06/19 08:27:57;;;;;;;5.00;4.60;;;;;;;31.25;43.77;100658.00;5053143;28;20663;-69
2021/06/19 08:30:25;;;;;;;4.75;4.18;;;;;;;31.28;43.89;100652.03;5053665;28;20237;-68
2021/06/19 08:32:51;;;;;;;5.55;4.40;;;;;;;31.30;43.24;100650.72;5052425;28;20728;-69
2021/06/19 08:35:19;;;;;;;4.45;3.95;;;;;;;31.32;42.56;100656.00;5063992;28;20677;-67
2021/06/19 08:37:45;;;;;;;4.53;4.07;;;;;;;31.36;42.69;100652.53;5052975;28;20205;-67
2021/06/19 08:40:12;;;;;;;4.95;4.50;;;;;;;31.45;42.61;100653.06;5062363;28;20204;-66
2021/06/19 08:42:39;;;;;;;7.72;4.43;;;;;;;31.64;42.12;100651.09;5053820;28;20211;-67
2021/06/19 08:45:07;;;;;;;5.78;3.92;;;;;;;31.75;41.84;100656.63;5064243;28;20224;-66
2021/06/19 08:47:37;;;;;;;5.78;3.72;;;;;;;31.80;40.96;100655.09;5052710;28;20219;-65
2021/06/19 08:50:08;;;;;;;4.95;3.28;;;;;;;31.79;40.62;100668.03;5048421;28;20266;-66
2021/06/19 08:52:38;;;;;;;3.58;3.28;;;;;;;31.75;40.25;100659.41;5058359;28;20263;-67
2021/06/19 08:55:06;;;;;;;4.38;3.75;;;;;;;31.77;40.00;100672.09;5052014;28;20201;-67
2021/06/19 08:57:33;;;;;;;4.72;3.75;;;;;;;31.82;40.48;100675.81;5044689;28;20641;-67
2021/06/19 08:59:59;;;;;;;3.70;3.22;;;;;;;31.81;39.81;100667.78;5051828;28;20659;-67
2021/06/19 09:02:26;;;;;;;3.50;2.63;;;;;;;31.77;39.14;100661.06;5044795;28;20213;-65
2021/06/19 09:04:57;;;;;;;3.67;2.50;;;;;;;31.72;39.09;100670.88;5052540;28;20249;-66
2021/06/19 09:07:46;;;;;;;3.28;2.42;;;;;;;31.68;39.08;100663.34;5045515;28;20197;-66
2021/06/19 09:10:26;;;;;;;5.57;2.75;;;;;;;31.72;39.39;100662.63;5051063;28;20208;-67
2021/06/19 09:13:01;;;;;;;2.50;2.30;;;;;;;31.86;38.67;100657.75;5051403;28;20220;-67
2021/06/19 09:15:31;;;;;;;2.80;2.00;;;;;;;31.89;38.42;100650.94;5052063;28;20211;-67
2021/06/19 09:18:09;;;;;;;2.45;2.10;;;;;;;31.97;39.36;100658.84;5043764;28;20205;-66
2021/06/19 09:20:38;;;;;;;4.47;2.25;;;;;;;32.06;38.58;100660.19;5036491;28;20229;-67
2021/06/19 09:23:09;;;;;;;4.72;2.95;;;;;;;32.11;39.37;100654.78;5036284;28;20232;-67
2021/06/19 09:25:35;;;;;;;3.80;3.50;;;;;;;32.19;39.92;100654.44;5035062;28;20218;-66
2021/06/19 09:28:05;;;;;;;4.55;3.53;;;;;;;32.25;40.51;100650.75;5050878;28;20655;-67
2021/06/19 09:30:32;;;;;;;4.35;3.20;;;;;;;32.28;40.56;100658.53;5047485;28;20212;-66
2021/06/19 09:33:00;;;;;;;3.97;3.08;;;;;;;32.33;40.27;100652.31;5036326;28;20230;-66
2021/06/19 09:35:29;;;;;;;6.18;3.33;;;;;;;32.36;39.35;100651.84;5034224;28;20749;-66
2021/06/19 09:37:57;;;;;;;4.43;3.33;;;;;;;32.39;39.54;100660.47;5045331;28;20205;-67
2021/06/19 09:40:29;;;;;;;3.90;3.00;;;;;;;32.42;39.87;100650.88;5047895;28;20216;-66
2021/06/19 09:43:10;;;;;;;3.40;2.72;;;;;;;32.47;39.85;100647.38;5050868;28;20236;-66
2021/06/19 09:45:37;;;;;;;3.42;2.80;;;;;;;32.49;39.19;100656.25;5036868;28;20280;-67
2021/06/19 09:48:05;;;;;;;5.85;2.78;;;;;;;32.48;39.00;100643.53;5045719;28;20284;-67
2021/06/19 09:50:32;;;;;;;7.18;2.90;;;;;;;32.55;39.17;100649.78;5050049;28;20215;-67
2021/06/19 09:53:12;;;;;;;2.50;2.30;;;;;;;32.60;38.95;100645.22;5042948;28;20221;-67
2021/06/19 09:55:56;;;;;;;3.67;2.97;;;;;;;32.70;38.65;100648.19;5050000;28;20284;-67
2021/06/19 09:58:37;;;;;;;3.65;2.60;;;;;;;32.73;38.25;100642.25;5048857;28;20659;-67
2021/06/19 10:01:04;;;;;;;5.22;2.85;;;;;;;32.70;38.01;100650.13;5038888;28;20275;-67
2021/06/19 10:03:30;;;;;;;4.25;2.70;;;;;;;32.64;38.23;100651.06;5044408;28;20233;-67
2021/06/19 10:05:57;;;;;;;4.13;2.80;;;;;;;32.64;38.77;100659.34;5043370;28;20601;-67
2021/06/19 10:08:25;;;;;;;3.03;2.67;;;;;;;32.67;38.21;100654.19;5039493;28;20210;-67
2021/06/19 10:10:53;;;;;;;5.75;2.80;;;;;;;32.67;37.94;100653.34;5034102;28;20690;-66
2021/06/19 10:13:21;;;;;;;4.45;3.15;;;;;;;32.68;38.13;100644.84;5040667;28;20217;-69
2021/06/19 10:15:48;;;;;;;4.10;2.85;;;;;;;32.76;37.94;100651.94;5043172;28;20202;-68
2021/06/19 10:18:14;;;;;;;2.72;2.45;;;;;;;32.79;37.76;100645.91;5047602;28;20208;-68
2021/06/19 10:20:41;;;;;;;1.92;1.73;;;;;;;32.88;37.17;100638.97;5044659;28;20201;-67
2021/06/19 10:23:07;;;;;;;1.90;1.52;;;;;;;33.01;36.14;100635.06;5047749;28;20221;-67
2021/06/19 10:25:34;;;;;;;2.95;2.00;;;;;;;33.08;35.59;100639.38;5049524;28;20248;-67
2021/06/19 10:28:02;;;;;;;2.03;1.65;;;;;;;33.10;34.91;100628.09;5043923;28;20663;-67
2021/06/19 10:30:29;;;;;;;3.50;1.52;;;;;;;33.08;34.13;100638.53;5050875;28;20201;-68
2021/06/19 10:32:58;;;;;;;3.55;1.60;;;;;;;33.04;33.63;100632.66;5049492;28;20233;-68
2021/06/19 10:35:53;;;;;;;2.08;1.88;;;;;;;33.05;33.50;100637.09;5042679;28;20206;-69
2021/06/19 10:38:20;;;;;;;3.10;1.60;;;;;;;33.09;33.71;100615.38;5050532;28;20204;-67
2021/06/19 10:40:52;;;;;;;2.22;1.83;;;;;;;33.13;33.48;100622.09;5049984;28;20204;-68
2021/06/19 10:43:21;;;;;;;1.77;1.33;;;;;;;33.15;32.84;100616.31;5049559;28;20263;-67
2021/06/19 10:45:47;;;;;;;1.45;1.30;;;;;;;33.15;32.62;100621.81;5050301;28;20779;-66
2021/06/19 10:48:15;;;;;;;1.70;1.60;;;;;;;33.13;32.69;100613.81;5035912;28;20210;-66
2021/06/19 10:50:44;;;;;;;1.70;1.33;;;;;;;33.09;33.47;100615.38;5034179;28;20256;-67
2021/06/19 10:53:14;;;;;;;3.40;1.80;;;;;;;33.10;33.62;100611.53;5037186;28;20228;-67
2021/06/19 10:55:57;;;;;;;2.63;1.73;;;;;;;33.10;33.78;100606.03;5040160;28;20198;-66
2021/06/19 10:58:26;;;;;;;2.55;1.52;;;;;;;33.07;33.02;100607.34;5033654;28;20285;-66
2021/06/19 11:00:55;;;;;;;1.55;1.23;;;;;;;33.08;32.65;100605.44;5043872;28;20205;-67
2021/06/19 11:03:43;;;;;;;2.17;1.63;;;;;;;33.13;32.94;100607.47;5047703;28;20286;-65
2021/06/19 11:06:24;;;;;;;1.52;1.40;;;;;;;33.19;32.33;100606.44;5043742;28;20226;-68
2021/06/19 11:09:07;;;;;;;2.05;1.48;;;;;;;33.24;32.30;100601.03;5047299;28;20596;-67
2021/06/19 11:11:48;;;;;;;3.25;1.50;;;;;;;33.21;32.26;100596.84;5048764;28;20208;-68
2021/06/19 11:14:34;;;;;;;2.38;1.60;;;;;;;33.23;33.27;100600.19;5047944;28;20225;-67
2021/06/19 11:17:01;;;;;;;3.25;1.52;;;;;;;33.28;33.77;100600.34;5044007;28;20204;-68
2021/06/19 11:19:44;;;;;;;1.40;1.30;;;;;;;33.27;33.50;100603.34;5049674;28;20205;-65